createdAt,value
2023-03-04T00:00:39.868Z,91.9
2023-03-04T00:03:02.123Z,91.6
2023-03-04T00:04:06.207Z,91.6
2023-03-04T00:05:09.807Z,91.6
2023-03-04T00:06:13.523Z,91.5
2023-03-04T00:07:16.329Z,91.4
2023-03-04T00:08:20.256Z,91.5
2023-03-04T00:09:23.082Z,91.5
2023-03-04T00:10:25.272Z,91.5
2023-03-04T00:11:28.790Z,91.7
2023-03-04T00:12:32.059Z,91.7
2023-03-04T00:13:34.834Z,91.5
2023-03-04T00:14:37.958Z,91.6
2023-03-04T00:15:41.904Z,91.6
2023-03-04T00:16:45.323Z,91.4
2023-03-04T00:17:49.515Z,91.3
2023-03-04T00:18:52.977Z,91.4
2023-03-04T00:19:57.193Z,91.3
2023-03-04T00:21:00.331Z,91.2
2023-03-04T00:22:03.327Z,91.3
2023-03-04T00:23:07.211Z,91.5
2023-03-04T00:24:10.699Z,91.7
2023-03-04T00:25:16.222Z,91.5
2023-03-04T00:26:19.288Z,91.4
2023-03-04T00:27:22.819Z,91.5
2023-03-04T00:28:25.940Z,91.5
2023-03-04T00:29:29.681Z,91.5
2023-03-04T00:30:32.183Z,91.4
2023-03-04T00:31:35.656Z,91.3
2023-03-04T00:32:39.234Z,91.4
2023-03-04T00:33:58.155Z,91.3
2023-03-04T00:35:02.798Z,91.3
2023-03-04T00:37:24.513Z,91.4
2023-03-04T00:38:27.520Z,91.2
2023-03-04T00:39:31.008Z,91.1
2023-03-04T00:40:33.682Z,91.1
2023-03-04T00:41:37.834Z,91.1
2023-03-04T00:42:40.709Z,91
2023-03-04T00:43:44.589Z,91
2023-03-04T00:44:48.316Z,90.8
2023-03-04T00:45:50.907Z,90.7
2023-03-04T00:46:54.787Z,90.7
2023-03-04T00:47:58.045Z,90.6
2023-03-04T00:49:00.844Z,90.7
2023-03-04T00:50:05.337Z,90.7
2023-03-04T00:51:08.637Z,90.6
2023-03-04T00:52:12.556Z,90.5
2023-03-04T00:53:15.901Z,90.5
2023-03-04T00:54:18.408Z,90.6
2023-03-04T00:55:21.775Z,90.7
2023-03-04T00:56:25.213Z,90.7
2023-03-04T00:57:27.925Z,90.7
2023-03-04T00:58:30.930Z,90.7
2023-03-04T00:59:33.384Z,90.6
2023-03-04T01:00:36.118Z,90.6
2023-03-04T01:01:39.611Z,90.7
2023-03-04T01:02:43.321Z,90.6
2023-03-04T01:03:46.310Z,90.5
2023-03-04T01:04:50.348Z,90.5
2023-03-04T01:05:54.535Z,90.4
2023-03-04T01:06:57.878Z,90.3
2023-03-04T01:08:00.307Z,90.2
2023-03-04T01:09:03.181Z,90.1
2023-03-04T01:10:06.303Z,90
2023-03-04T01:11:09.022Z,90
2023-03-04T01:12:12.046Z,90
2023-03-04T01:13:15.142Z,89.9
2023-03-04T01:14:18.412Z,89.9
2023-03-04T01:15:21.530Z,89.9
2023-03-04T01:16:24.735Z,89.9
2023-03-04T01:17:27.493Z,90
2023-03-04T01:18:30.351Z,89.9
2023-03-04T01:19:34.030Z,89.9
2023-03-04T01:20:37.491Z,89.9
2023-03-04T01:21:41.350Z,89.9
2023-03-04T01:22:43.797Z,89.9
2023-03-04T01:23:46.399Z,89.9
2023-03-04T01:24:49.860Z,89.9
2023-03-04T01:25:53.112Z,89.9
2023-03-04T01:26:56.866Z,89.8
2023-03-04T01:27:59.565Z,89.9
2023-03-04T01:29:02.305Z,90.1
2023-03-04T01:30:04.508Z,90
2023-03-04T01:31:08.463Z,90.1
2023-03-04T01:32:11.058Z,90.4
2023-03-04T01:33:14.295Z,90.1
2023-03-04T01:34:17.578Z,90
2023-03-04T01:35:21.520Z,90.1
2023-03-04T01:36:24.665Z,90
2023-03-04T01:37:28.881Z,89.9
2023-03-04T01:38:32.621Z,89.9
2023-03-04T01:39:36.377Z,89.7
2023-03-04T01:40:40.102Z,89.6
2023-03-04T01:41:43.821Z,89.6
2023-03-04T01:42:46.671Z,89.6
2023-03-04T01:43:50.060Z,89.9
2023-03-04T01:44:53.004Z,89.8
2023-03-04T01:45:56.412Z,89.9
2023-03-04T01:46:59.952Z,89.9
2023-03-04T01:48:02.887Z,89.9
2023-03-04T01:49:06.744Z,90
2023-03-04T01:50:10.675Z,90
2023-03-04T01:51:14.312Z,90
2023-03-04T01:52:17.379Z,89.8
2023-03-04T01:53:21.313Z,89.7
2023-03-04T01:54:24.355Z,89.6
2023-03-04T01:55:27.490Z,89.5
2023-03-04T01:56:30.210Z,89.5
2023-03-04T01:57:33.405Z,89.4
2023-03-04T01:58:36.404Z,89.3
2023-03-04T01:59:40.063Z,89.3
2023-03-04T02:00:43.216Z,89.2
2023-03-04T02:01:46.757Z,89.2
2023-03-04T02:02:49.912Z,89
2023-03-04T02:03:52.996Z,88.8
2023-03-04T02:04:55.607Z,88.8
2023-03-04T02:05:59.057Z,88.7
2023-03-04T02:07:02.041Z,88.6
2023-03-04T02:08:05.820Z,88.7
2023-03-04T02:09:09.989Z,88.8
2023-03-04T02:10:14.420Z,88.6
2023-03-04T02:11:17.551Z,88.6
2023-03-04T02:12:20.983Z,88.5
2023-03-04T02:13:24.072Z,88.4
2023-03-04T02:14:27.869Z,88.3
2023-03-04T02:15:31.411Z,88.3
2023-03-04T02:16:34.866Z,88.2
2023-03-04T02:17:38.015Z,88.4
2023-03-04T02:18:41.039Z,88.6
2023-03-04T02:19:44.509Z,88.5
2023-03-04T02:20:47.897Z,88.5
2023-03-04T02:21:51.280Z,88.6
2023-03-04T02:22:54.499Z,88.6
2023-03-04T02:23:57.262Z,88.5
2023-03-04T02:25:01.506Z,88.6
2023-03-04T02:26:05.171Z,88.5
2023-03-04T02:27:08.155Z,88.4
2023-03-04T02:28:11.259Z,88.5
2023-03-04T02:29:13.787Z,88.4
2023-03-04T02:30:16.528Z,88.4
2023-03-04T02:31:19.353Z,88.4
2023-03-04T02:32:23.202Z,88.5
2023-03-04T02:33:26.412Z,88.5
2023-03-04T02:34:29.777Z,88.5
2023-03-04T02:35:32.830Z,88.4
2023-03-04T02:36:36.937Z,88.4
2023-03-04T02:37:40.041Z,88.4
2023-03-04T02:38:42.905Z,88.3
2023-03-04T02:39:45.660Z,88
2023-03-04T02:40:49.873Z,88
2023-03-04T02:41:53.256Z,87.8
2023-03-04T02:42:57.069Z,87.9
2023-03-04T02:44:00.467Z,87.8
2023-03-04T02:45:04.524Z,87.9
2023-03-04T02:46:07.593Z,87.9
2023-03-04T02:47:10.565Z,87.7
2023-03-04T02:48:13.968Z,87.6
2023-03-04T02:49:17.616Z,87.6
2023-03-04T02:50:20.404Z,87.6
2023-03-04T02:51:23.775Z,87.6
2023-03-04T02:52:27.138Z,87.5
2023-03-04T02:53:30.250Z,87.7
2023-03-04T02:54:33.554Z,87.6
2023-03-04T02:55:36.910Z,87.4
2023-03-04T02:56:41.074Z,87.4
2023-03-04T02:57:44.508Z,87.1
2023-03-04T02:58:47.527Z,87.2
2023-03-04T02:59:50.638Z,87
2023-03-04T03:00:54.066Z,87.5
2023-03-04T03:01:57.278Z,87.2
2023-03-04T03:03:01.336Z,87.2
2023-03-04T03:04:04.857Z,87
2023-03-04T03:05:08.024Z,87
2023-03-04T03:06:10.917Z,86.9
2023-03-04T03:07:14.272Z,86.9
2023-03-04T03:08:17.070Z,86.8
2023-03-04T03:09:20.359Z,86.8
2023-03-04T03:10:23.180Z,86.8
2023-03-04T03:11:28.208Z,86.8
2023-03-04T03:12:32.359Z,86.8
2023-03-04T03:13:35.139Z,86.8
2023-03-04T03:14:38.224Z,86.9
2023-03-04T03:15:41.022Z,86.8
2023-03-04T03:16:44.332Z,86.9
2023-03-04T03:17:46.788Z,87
2023-03-04T03:18:50.291Z,87
2023-03-04T03:19:53.759Z,87.1
2023-03-04T03:20:56.340Z,87.1
2023-03-04T03:21:59.327Z,87.2
2023-03-04T03:23:02.059Z,87.2
2023-03-04T03:24:06.094Z,87.3
2023-03-04T03:25:08.830Z,87.4
2023-03-04T03:26:12.179Z,87.6
2023-03-04T03:27:15.799Z,87.8
2023-03-04T03:28:19.950Z,87.8
2023-03-04T03:29:23.281Z,87.8
2023-03-04T03:30:26.359Z,87.9
2023-03-04T03:31:29.662Z,87.8
2023-03-04T03:32:33.642Z,88
2023-03-04T03:33:37.291Z,88.2
2023-03-04T03:34:40.657Z,88.4
2023-03-04T03:35:43.984Z,88.5
2023-03-04T03:36:47.278Z,88.7
2023-03-04T03:37:50.650Z,88.9
2023-03-04T03:38:53.638Z,88.9
2023-03-04T03:39:56.442Z,89.1
2023-03-04T03:40:59.574Z,89.2
2023-03-04T03:42:02.711Z,89.3
2023-03-04T03:43:05.891Z,89.6
2023-03-04T03:44:10.102Z,89.5
2023-03-04T03:45:12.860Z,89.6
2023-03-04T03:46:16.022Z,89.7
2023-03-04T03:47:19.632Z,89.6
2023-03-04T03:48:22.553Z,89.6
2023-03-04T03:49:25.839Z,89.8
2023-03-04T03:50:28.834Z,89.9
2023-03-04T03:51:31.556Z,90.1
2023-03-04T03:52:33.979Z,90.2
2023-03-04T03:53:37.434Z,90.6
2023-03-04T03:54:40.748Z,90.8
2023-03-04T03:55:43.736Z,90.9
2023-03-04T03:56:47.755Z,90.9
2023-03-04T03:57:50.335Z,90.9
2023-03-04T03:58:53.878Z,90.8
2023-03-04T03:59:57.809Z,91
2023-03-04T04:01:01.234Z,91.4
2023-03-04T04:02:05.246Z,91.4
2023-03-04T04:03:09.543Z,91.3
2023-03-04T04:04:12.657Z,91.2
2023-03-04T04:05:15.700Z,91.3
2023-03-04T04:06:18.801Z,91.3
2023-03-04T04:07:21.636Z,91.3
2023-03-04T04:08:24.416Z,91.4
2023-03-04T04:09:28.140Z,91.5
2023-03-04T04:10:30.967Z,91.7
2023-03-04T04:11:33.975Z,91.9
2023-03-04T04:12:36.988Z,92.1
2023-03-04T04:13:40.317Z,92.4
2023-03-04T04:14:43.049Z,92.5
2023-03-04T04:15:47.002Z,92.7
2023-03-04T04:16:50.476Z,92.7
2023-03-04T04:17:53.869Z,93
2023-03-04T04:18:57.249Z,93
2023-03-04T04:20:00.689Z,93.1
2023-03-04T04:21:03.861Z,93.1
2023-03-04T04:22:06.384Z,93
2023-03-04T04:23:09.416Z,93
2023-03-04T04:24:12.764Z,93.1
2023-03-04T04:25:16.102Z,93
2023-03-04T04:26:19.228Z,94.3
2023-03-04T04:27:22.035Z,94.1
2023-03-04T04:28:25.042Z,94.3
2023-03-04T04:29:28.172Z,94.4
2023-03-04T04:30:31.396Z,94.6
2023-03-04T04:31:35.468Z,94.1
2023-03-04T04:32:38.918Z,92.3
2023-03-04T04:33:41.994Z,91.5
2023-03-04T04:34:45.367Z,91.9
2023-03-04T04:35:48.925Z,90.9
2023-03-04T04:36:51.891Z,90.4
2023-03-04T04:37:54.706Z,90.8
2023-03-04T04:38:58.182Z,89.6
2023-03-04T04:40:01.261Z,89.1
2023-03-04T04:41:04.920Z,88.9
2023-03-04T04:42:07.105Z,89
2023-03-04T04:43:09.811Z,89.1
2023-03-04T04:44:12.877Z,89.2
2023-03-04T04:45:16.314Z,89.3
2023-03-04T04:46:19.833Z,89.4
2023-03-04T04:47:24.140Z,89.6
2023-03-04T04:48:27.296Z,89.6
2023-03-04T04:49:30.080Z,89.8
2023-03-04T04:50:34.621Z,89.8
2023-03-04T04:51:37.751Z,89.8
2023-03-04T04:52:40.845Z,90
2023-03-04T04:53:44.181Z,89.8
2023-03-04T04:54:46.978Z,89.7
2023-03-04T04:55:49.719Z,89.7
2023-03-04T04:56:53.169Z,89.9
2023-03-04T04:57:56.244Z,89.8
2023-03-04T04:58:59.629Z,89.5
2023-03-04T05:00:03.386Z,89.2
2023-03-04T05:01:06.266Z,89
2023-03-04T05:02:09.578Z,88.9
2023-03-04T05:03:13.676Z,89
2023-03-04T05:04:17.114Z,89.1
2023-03-04T05:05:20.041Z,88.7
2023-03-04T05:06:23.030Z,88.5
2023-03-04T05:07:26.222Z,88.1
2023-03-04T05:08:29.579Z,88
2023-03-04T05:09:32.647Z,88.1
2023-03-04T05:10:35.747Z,87.8
2023-03-04T05:11:38.178Z,87.5
2023-03-04T05:12:40.988Z,87.6
2023-03-04T05:13:44.456Z,87.2
2023-03-04T05:14:47.525Z,87
2023-03-04T05:15:50.404Z,86.7
2023-03-04T05:16:53.240Z,86.5
2023-03-04T05:17:56.345Z,86.5
2023-03-04T05:19:00.283Z,86.5
2023-03-04T05:20:03.592Z,86.4
2023-03-04T05:21:06.455Z,86.3
2023-03-04T05:22:09.268Z,86.4
2023-03-04T05:23:12.376Z,86.3
2023-03-04T05:24:15.006Z,86.4
2023-03-04T05:25:18.354Z,86.4
2023-03-04T05:26:21.305Z,86.4
2023-03-04T05:27:24.661Z,86.2
2023-03-04T05:28:27.732Z,86.2
2023-03-04T05:29:30.192Z,86.2
2023-03-04T05:30:33.278Z,86
2023-03-04T05:31:36.719Z,85.6
2023-03-04T05:32:39.590Z,84.5
2023-03-04T05:33:42.794Z,84.2
2023-03-04T05:34:46.724Z,83.9
2023-03-04T05:35:49.883Z,82.9
2023-03-04T05:36:52.435Z,81.2
2023-03-04T05:37:55.802Z,80
2023-03-04T05:38:58.592Z,79.5
2023-03-04T05:40:01.971Z,78.7
2023-03-04T05:41:04.848Z,79
2023-03-04T05:42:08.205Z,78
2023-03-04T05:43:10.437Z,77.2
2023-03-04T05:44:13.710Z,76.7
2023-03-04T05:45:17.399Z,76.3
2023-03-04T05:46:21.344Z,75.9
2023-03-04T05:47:25.159Z,75.2
2023-03-04T05:48:27.889Z,75.1
2023-03-04T05:49:31.360Z,74.9
2023-03-04T05:50:35.651Z,74.5
2023-03-04T05:51:38.384Z,74.5
2023-03-04T05:52:41.436Z,74.3
2023-03-04T05:53:44.244Z,73.8
2023-03-04T05:54:47.072Z,74
2023-03-04T05:55:49.861Z,74.6
2023-03-04T05:56:53.245Z,74.8
2023-03-04T05:57:55.947Z,74.3
2023-03-04T05:58:59.000Z,74.1
2023-03-04T06:00:02.131Z,74.2
2023-03-04T06:01:04.727Z,74.3
2023-03-04T06:02:07.782Z,74.5
2023-03-04T06:03:11.789Z,74.5
2023-03-04T06:04:14.752Z,74.8
2023-03-04T06:05:18.355Z,75.1
2023-03-04T06:06:22.571Z,74.9
2023-03-04T06:07:25.552Z,75.5
2023-03-04T06:08:28.724Z,75.4
2023-03-04T06:09:32.131Z,75.6
2023-03-04T06:10:35.568Z,75.9
2023-03-04T06:11:38.369Z,76
2023-03-04T06:12:41.186Z,76
2023-03-04T06:13:43.986Z,76.1
2023-03-04T06:14:47.087Z,76.2
2023-03-04T06:15:50.988Z,76.3
2023-03-04T06:16:54.095Z,76.5
2023-03-04T06:17:57.463Z,76.6
2023-03-04T06:19:00.693Z,77.1
2023-03-04T06:20:03.750Z,77.4
2023-03-04T06:21:07.000Z,77.6
2023-03-04T06:22:11.174Z,77.4
2023-03-04T06:23:14.342Z,77.7
2023-03-04T06:24:17.314Z,77.9
2023-03-04T06:25:20.387Z,77.9
2023-03-04T06:26:23.211Z,78.3
2023-03-04T06:27:26.284Z,78.7
2023-03-04T06:28:29.044Z,79
2023-03-04T06:29:32.049Z,79
2023-03-04T06:30:35.483Z,79
2023-03-04T06:31:39.147Z,79
2023-03-04T06:32:42.304Z,79.2
2023-03-04T06:33:45.389Z,79.4
2023-03-04T06:34:48.455Z,79.6
2023-03-04T06:35:51.270Z,79.7
2023-03-04T06:36:54.145Z,79.7
2023-03-04T06:37:58.329Z,79.5
2023-03-04T06:39:01.389Z,79.5
2023-03-04T06:40:04.114Z,80.3
2023-03-04T06:41:06.701Z,80.5
2023-03-04T06:42:08.875Z,80.2
2023-03-04T06:43:11.771Z,80.1
2023-03-04T06:44:14.473Z,80
2023-03-04T06:45:17.375Z,80.1
2023-03-04T06:46:20.967Z,80
2023-03-04T06:47:24.766Z,80.1
2023-03-04T06:48:27.927Z,79.8
2023-03-04T06:49:31.647Z,79.9
2023-03-04T06:50:35.140Z,79.7
2023-03-04T06:51:39.195Z,79.7
2023-03-04T06:52:41.807Z,79.5
2023-03-04T06:53:45.994Z,79.3
2023-03-04T06:54:49.265Z,78.9
2023-03-04T06:55:52.405Z,79.1
2023-03-04T06:56:54.934Z,79.2
2023-03-04T06:57:57.733Z,79.1
2023-03-04T06:59:01.104Z,79.3
2023-03-04T07:00:05.188Z,78.9
2023-03-04T07:01:08.787Z,78.8
2023-03-04T07:02:12.738Z,78.8
2023-03-04T07:03:15.662Z,78.8
2023-03-04T07:04:19.336Z,78.9
2023-03-04T07:05:22.262Z,79
2023-03-04T07:06:25.922Z,78.8
2023-03-04T07:07:28.372Z,78.4
2023-03-04T07:08:30.896Z,78.3
2023-03-04T07:09:35.078Z,78.4
2023-03-04T07:10:38.429Z,78.4
2023-03-04T07:11:41.567Z,78.5
2023-03-04T07:12:44.028Z,78.5
2023-03-04T07:13:47.274Z,78
2023-03-04T07:14:50.508Z,77
2023-03-04T07:15:54.292Z,76.5
2023-03-04T07:16:57.581Z,75.8
2023-03-04T07:18:00.399Z,74.4
2023-03-04T07:19:03.406Z,73.9
2023-03-04T07:20:06.179Z,73.8
2023-03-04T07:21:09.568Z,74.7
2023-03-04T07:22:12.354Z,74.3
2023-03-04T07:23:15.640Z,73.9
2023-03-04T07:24:18.363Z,74
2023-03-04T07:25:22.340Z,73.6
2023-03-04T07:26:25.344Z,73
2023-03-04T07:27:28.328Z,72.5
2023-03-04T07:28:31.736Z,72.5
2023-03-04T07:29:34.578Z,72.6
2023-03-04T07:30:37.675Z,72.6
2023-03-04T07:31:41.343Z,72
2023-03-04T07:32:45.473Z,72.2
2023-03-04T07:33:48.589Z,73
2023-03-04T07:34:51.156Z,72.6
2023-03-04T07:35:54.181Z,72.7
2023-03-04T07:36:57.010Z,71.9
2023-03-04T07:38:00.106Z,71.9
2023-03-04T07:39:03.496Z,72.3
2023-03-04T07:40:06.640Z,72.1
2023-03-04T07:41:10.847Z,72.5
2023-03-04T07:42:13.196Z,72.4
2023-03-04T07:43:15.905Z,72
2023-03-04T07:44:19.638Z,72.1
2023-03-04T07:45:23.381Z,72.6
2023-03-04T07:46:26.903Z,72.5
2023-03-04T07:47:30.473Z,71.8
2023-03-04T07:48:33.582Z,72.3
2023-03-04T07:49:36.920Z,72.1
2023-03-04T07:50:40.237Z,71.9
2023-03-04T07:51:43.602Z,71.9
2023-03-04T07:52:47.080Z,72.3
2023-03-04T07:53:50.160Z,72.6
2023-03-04T07:54:53.882Z,72.3
2023-03-04T07:55:56.966Z,72.1
2023-03-04T07:57:01.299Z,72.1
2023-03-04T07:58:04.319Z,72.3
2023-03-04T07:59:08.166Z,72.2
2023-03-04T08:00:11.867Z,72.3
2023-03-04T08:01:15.650Z,72.5
2023-03-04T08:02:19.075Z,71.9
2023-03-04T08:03:22.327Z,71.6
2023-03-04T08:04:25.174Z,71.9
2023-03-04T08:05:28.060Z,72.1
2023-03-04T08:06:31.225Z,72.4
2023-03-04T08:07:34.611Z,72.4
2023-03-04T08:08:37.405Z,72.1
2023-03-04T08:09:40.119Z,71.8
2023-03-04T08:10:42.867Z,71.9
2023-03-04T08:11:45.674Z,72.2
2023-03-04T08:12:49.552Z,71.2
2023-03-04T08:13:52.820Z,71.1
2023-03-04T08:14:55.952Z,70.8
2023-03-04T08:15:59.328Z,70.7
2023-03-04T08:17:02.842Z,70.8
2023-03-04T08:18:05.351Z,71.1
2023-03-04T08:19:08.745Z,71.1
2023-03-04T08:20:12.489Z,71
2023-03-04T08:21:15.763Z,70.8
2023-03-04T08:22:19.470Z,71.4
2023-03-04T08:23:23.000Z,71.3
2023-03-04T08:24:26.074Z,71.9
2023-03-04T08:25:29.141Z,71.3
2023-03-04T08:26:32.293Z,71.1
2023-03-04T08:27:35.276Z,71
2023-03-04T08:28:39.493Z,71.1
2023-03-04T08:29:41.973Z,70.7
2023-03-04T08:30:45.652Z,70.9
2023-03-04T08:31:50.587Z,70.8
2023-03-04T08:32:54.295Z,70.8
2023-03-04T08:33:57.870Z,70.7
2023-03-04T08:35:01.309Z,71.3
2023-03-04T08:36:04.409Z,71.1
2023-03-04T08:37:07.536Z,71
2023-03-04T08:38:10.877Z,71.3
2023-03-04T08:39:13.616Z,71.7
2023-03-04T08:40:16.791Z,70.9
2023-03-04T08:41:19.800Z,70.5
2023-03-04T08:42:22.867Z,70.8
2023-03-04T08:43:25.996Z,70.2
2023-03-04T08:44:30.118Z,69.8
2023-03-04T08:45:32.838Z,69.9
2023-03-04T08:46:36.353Z,70.9
2023-03-04T08:47:39.435Z,70
2023-03-04T08:48:42.819Z,70.1
2023-03-04T08:49:45.453Z,70
2023-03-04T08:50:48.292Z,69.8
2023-03-04T08:51:51.404Z,69.7
2023-03-04T08:52:55.056Z,69.5
2023-03-04T08:53:57.922Z,69.6
2023-03-04T08:55:01.184Z,69.9
2023-03-04T08:56:04.344Z,69.9
2023-03-04T08:57:07.226Z,70.8
2023-03-04T08:58:09.990Z,70.5
2023-03-04T08:59:13.338Z,70.1
2023-03-04T09:00:17.762Z,70.7
2023-03-04T09:01:20.703Z,70.3
2023-03-04T09:02:23.645Z,70.6
2023-03-04T09:03:27.208Z,71
2023-03-04T09:04:31.388Z,70.8
2023-03-04T09:05:34.735Z,71.1
2023-03-04T09:06:37.626Z,71.2
2023-03-04T09:07:40.988Z,70.3
2023-03-04T09:08:44.128Z,70.4
2023-03-04T09:09:46.962Z,70
2023-03-04T09:10:50.598Z,69.7
2023-03-04T09:11:53.225Z,69.9
2023-03-04T09:12:56.684Z,70.2
2023-03-04T09:13:59.814Z,70.5
2023-03-04T09:15:13.140Z,70.7
2023-03-04T09:16:17.552Z,70.6
2023-03-04T09:17:21.114Z,70.5
2023-03-04T09:18:24.190Z,70.5
2023-03-04T09:19:26.887Z,70.5
2023-03-04T09:20:29.699Z,70.4
2023-03-04T09:21:32.952Z,70.9
2023-03-04T09:22:36.970Z,70.7
2023-03-04T09:23:40.115Z,70.9
2023-03-04T09:24:42.533Z,70.6
2023-03-04T09:25:45.561Z,71.3
2023-03-04T09:26:48.901Z,71.7
2023-03-04T09:27:52.098Z,72
2023-03-04T09:28:55.848Z,71.9
2023-03-04T09:29:59.047Z,70.2
2023-03-04T09:31:02.939Z,70
2023-03-04T09:32:07.419Z,69.4
2023-03-04T09:33:10.767Z,69.5
2023-03-04T09:34:14.190Z,69
2023-03-04T09:35:17.199Z,69.2
2023-03-04T09:36:20.591Z,68.9
2023-03-04T09:37:23.967Z,69.1
2023-03-04T09:38:27.331Z,68.4
2023-03-04T09:39:30.053Z,68.2
2023-03-04T09:40:33.730Z,68.2
2023-03-04T09:41:36.722Z,67.6
2023-03-04T09:42:40.723Z,67.8
2023-03-04T09:43:44.562Z,68.2
2023-03-04T09:44:47.576Z,68
2023-03-04T09:45:51.005Z,68.4
2023-03-04T09:46:54.221Z,68.3
2023-03-04T09:47:58.571Z,67.6
2023-03-04T09:49:01.993Z,67.8
2023-03-04T09:50:05.222Z,67.6
2023-03-04T09:51:08.635Z,67.4
2023-03-04T09:52:12.261Z,67.6
2023-03-04T09:53:15.368Z,67.5
2023-03-04T09:54:18.151Z,67.3
2023-03-04T09:55:21.453Z,66.9
2023-03-04T09:56:25.278Z,67.1
2023-03-04T09:57:28.814Z,67.5
2023-03-04T09:58:32.525Z,66.7
2023-03-04T09:59:35.673Z,67.7
2023-03-04T10:00:38.857Z,67.7
2023-03-04T10:01:41.440Z,66.9
2023-03-04T10:02:43.717Z,67.4
2023-03-04T10:03:48.153Z,67
2023-03-04T10:04:51.598Z,67.4
2023-03-04T10:05:55.073Z,66.1
2023-03-04T10:06:58.491Z,66
2023-03-04T10:08:01.936Z,66
2023-03-04T10:09:04.746Z,66.3
2023-03-04T10:10:07.824Z,66.2
2023-03-04T10:11:11.204Z,66.1
2023-03-04T10:12:13.792Z,66.5
2023-03-04T10:13:17.561Z,65.6
2023-03-04T10:14:20.940Z,65.7
2023-03-04T10:15:24.400Z,66.2
2023-03-04T10:16:27.808Z,66.6
2023-03-04T10:17:30.905Z,66
2023-03-04T10:18:33.419Z,65.6
2023-03-04T10:19:37.608Z,65.8
2023-03-04T10:20:40.612Z,65.4
2023-03-04T10:21:44.020Z,65.2
2023-03-04T10:22:47.449Z,65.2
2023-03-04T10:23:50.798Z,69
2023-03-04T10:24:53.874Z,74.6
2023-03-04T10:25:57.023Z,69.3
2023-03-04T10:27:00.392Z,70
2023-03-04T10:28:03.873Z,78.6
2023-03-04T10:29:06.548Z,72
2023-03-04T10:30:09.374Z,71.1
2023-03-04T10:31:12.395Z,63.3
2023-03-04T10:32:15.796Z,62.1
2023-03-04T10:33:19.229Z,62.2
2023-03-04T10:34:22.564Z,63.4
2023-03-04T10:35:26.862Z,63.7
2023-03-04T10:36:31.077Z,63.9
2023-03-04T10:37:34.640Z,64.4
2023-03-04T10:38:37.704Z,64
2023-03-04T10:39:40.742Z,64.2
2023-03-04T10:40:46.769Z,64.7
2023-03-04T10:41:50.468Z,65.7
2023-03-04T10:42:54.392Z,65.8
2023-03-04T10:43:57.098Z,65.8
2023-03-04T10:45:00.173Z,65.8
2023-03-04T10:46:04.137Z,65.9
2023-03-04T10:47:07.659Z,66.6
2023-03-04T10:48:10.758Z,66.8
2023-03-04T10:49:14.863Z,66.3
2023-03-04T10:50:18.291Z,66.6
2023-03-04T10:51:22.456Z,66.3
2023-03-04T10:52:25.536Z,65.7
2023-03-04T10:53:28.642Z,65.5
2023-03-04T10:54:32.378Z,65.8
2023-03-04T10:55:35.371Z,65.2
2023-03-04T10:56:39.463Z,65.5
2023-03-04T10:57:42.798Z,65.6
2023-03-04T10:58:45.868Z,65.7
2023-03-04T10:59:49.288Z,65.7
2023-03-04T11:00:52.333Z,65.9
2023-03-04T11:01:55.127Z,65.5
2023-03-04T11:02:57.842Z,65.4
2023-03-04T11:04:01.430Z,65.8
2023-03-04T11:05:05.325Z,65.9
2023-03-04T11:06:08.443Z,65.9
2023-03-04T11:07:12.691Z,65.3
2023-03-04T11:08:15.410Z,64.8
2023-03-04T11:09:19.128Z,65.7
2023-03-04T11:10:21.912Z,65.8
2023-03-04T11:11:25.965Z,65.3
2023-03-04T11:12:29.058Z,65.3
2023-03-04T11:13:31.566Z,65.1
2023-03-04T11:14:34.130Z,65.3
2023-03-04T11:15:36.851Z,65
2023-03-04T11:16:40.829Z,65.2
2023-03-04T11:17:44.498Z,64.8
2023-03-04T11:18:47.576Z,64.6
2023-03-04T11:19:50.033Z,64.9
2023-03-04T11:20:53.112Z,65.1
2023-03-04T11:21:56.186Z,65
2023-03-04T11:23:00.094Z,65.3
2023-03-04T11:24:03.150Z,65.5
2023-03-04T11:25:06.309Z,65.9
2023-03-04T11:26:08.739Z,64.9
2023-03-04T11:27:12.358Z,64.8
2023-03-04T11:28:15.757Z,64.8
2023-03-04T11:29:18.761Z,65.2
2023-03-04T11:30:21.870Z,64.8
2023-03-04T11:31:25.620Z,64.9
2023-03-04T11:32:28.940Z,65.1
2023-03-04T11:33:32.248Z,65.4
2023-03-04T11:34:35.365Z,64.8
2023-03-04T11:35:39.224Z,65.3
2023-03-04T11:36:42.742Z,65.7
2023-03-04T11:37:45.454Z,65.7
2023-03-04T11:38:49.602Z,65.7
2023-03-04T11:39:52.780Z,65.5
2023-03-04T11:40:56.161Z,65.3
2023-03-04T11:41:59.424Z,65
2023-03-04T11:43:02.578Z,64.9
2023-03-04T11:44:05.564Z,64.5
2023-03-04T11:45:34.017Z,64.5
2023-03-04T11:46:38.015Z,63.9
2023-03-04T11:47:42.017Z,63.3
2023-03-04T11:48:44.800Z,63.6
2023-03-04T11:49:47.243Z,63.8
2023-03-04T11:50:50.041Z,63.6
2023-03-04T11:51:52.766Z,63.8
2023-03-04T11:52:55.775Z,63.6
2023-03-04T11:53:59.999Z,63.9
2023-03-04T11:55:03.448Z,64.1
2023-03-04T11:56:06.437Z,64.7
2023-03-04T11:57:09.164Z,65
2023-03-04T11:58:15.028Z,65.2
2023-03-04T11:59:17.837Z,65
2023-03-04T12:00:20.888Z,64.8
2023-03-04T12:01:25.373Z,65
2023-03-04T12:02:27.958Z,64.9
2023-03-04T12:03:31.674Z,64.5
2023-03-04T12:04:35.146Z,65
2023-03-04T12:05:38.736Z,64.9
2023-03-04T12:06:41.964Z,65.4
2023-03-04T12:07:45.001Z,64.9
2023-03-04T12:08:47.502Z,64.9
2023-03-04T12:09:51.668Z,64.7
2023-03-04T12:10:54.538Z,64.8
2023-03-04T12:11:57.048Z,64.8
2023-03-04T12:12:59.855Z,64.7
2023-03-04T12:14:03.054Z,64.9
2023-03-04T12:15:06.167Z,65.3
2023-03-04T12:16:09.709Z,64.6
2023-03-04T12:17:13.225Z,64.8
2023-03-04T12:18:17.325Z,65.3
2023-03-04T12:19:21.207Z,65.4
2023-03-04T12:20:24.384Z,64.6
2023-03-04T12:21:27.839Z,64.4
2023-03-04T12:22:31.050Z,64.2
2023-03-04T12:23:34.116Z,63.9
2023-03-04T12:24:36.733Z,63.8
2023-03-04T12:25:40.942Z,64
2023-03-04T12:26:44.118Z,64
2023-03-04T12:27:47.072Z,63.4
2023-03-04T12:28:49.897Z,63.4
2023-03-04T12:29:52.681Z,63.3
2023-03-04T12:30:55.911Z,63.3
2023-03-04T12:31:59.613Z,63.6
2023-03-04T12:33:03.204Z,63.3
2023-03-04T12:34:06.422Z,63.5
2023-03-04T12:35:09.215Z,63.5
2023-03-04T12:36:12.086Z,62.9
2023-03-04T12:37:15.699Z,63.2
2023-03-04T12:38:21.089Z,63.4
2023-03-04T12:39:24.216Z,63.3
2023-03-04T12:40:27.996Z,63.1
2023-03-04T12:41:32.307Z,62.6
2023-03-04T12:42:35.949Z,63
2023-03-04T12:43:38.664Z,62.9
2023-03-04T12:44:41.835Z,62.9
2023-03-04T12:45:45.281Z,62.9
2023-03-04T12:46:48.428Z,63
2023-03-04T12:47:51.644Z,62.9
2023-03-04T12:48:54.981Z,63.1
2023-03-04T12:49:58.757Z,63.1
2023-03-04T12:51:01.863Z,62.8
2023-03-04T12:52:05.341Z,62.7
2023-03-04T12:53:08.507Z,62.2
2023-03-04T12:54:11.511Z,62.4
2023-03-04T12:55:14.641Z,62.5
2023-03-04T12:56:18.117Z,62.6
2023-03-04T12:57:22.284Z,62.9
2023-03-04T12:58:25.740Z,62.9
2023-03-04T12:59:29.125Z,62.8
2023-03-04T13:00:31.830Z,62.7
2023-03-04T13:01:35.121Z,63
2023-03-04T13:02:38.421Z,63.6
2023-03-04T13:03:41.695Z,62.9
2023-03-04T13:04:45.446Z,63.2
2023-03-04T13:05:48.191Z,63.5
2023-03-04T13:06:50.893Z,62.7
2023-03-04T13:07:55.258Z,62.7
2023-03-04T13:08:59.245Z,61.8
2023-03-04T13:10:01.964Z,61.9
2023-03-04T13:11:05.374Z,61.4
2023-03-04T13:12:08.087Z,60.6
2023-03-04T13:13:12.242Z,60.7
2023-03-04T13:14:15.693Z,61.2
2023-03-04T13:15:18.831Z,61
2023-03-04T13:16:22.249Z,60.9
2023-03-04T13:17:25.419Z,60.8
2023-03-04T13:18:28.476Z,61
2023-03-04T13:19:31.261Z,60.9
2023-03-04T13:20:34.676Z,60.8
2023-03-04T13:21:37.779Z,61.1
2023-03-04T13:22:40.801Z,61.4
2023-03-04T13:23:43.641Z,61.8
2023-03-04T13:24:47.120Z,62.1
2023-03-04T13:25:49.979Z,62.3
2023-03-04T13:26:53.981Z,62.4
2023-03-04T13:27:57.878Z,62.5
2023-03-04T13:29:02.771Z,62
2023-03-04T13:30:05.284Z,61.8
2023-03-04T13:31:08.578Z,61.6
2023-03-04T13:32:12.640Z,62.1
2023-03-04T13:33:16.303Z,60.6
2023-03-04T13:34:19.298Z,61
2023-03-04T13:35:22.978Z,60.7
2023-03-04T13:36:25.769Z,60.8
2023-03-04T13:37:28.803Z,61
2023-03-04T13:38:32.042Z,61.2
2023-03-04T13:39:35.311Z,60.9
2023-03-04T13:40:38.456Z,60.7
2023-03-04T13:41:41.696Z,60.5
2023-03-04T13:42:44.687Z,60.8
2023-03-04T13:43:47.976Z,60.8
2023-03-04T13:44:52.236Z,60.7
2023-03-04T13:45:54.950Z,60.2
2023-03-04T13:46:58.642Z,60.5
2023-03-04T13:48:02.368Z,60.5
2023-03-04T13:49:05.158Z,60.7
2023-03-04T13:50:08.806Z,61.2
2023-03-04T13:51:31.245Z,61.4
2023-03-04T13:52:34.898Z,61.2
2023-03-04T13:53:38.263Z,61.1
2023-03-04T13:54:41.609Z,61.2
2023-03-04T13:55:44.083Z,61.6
2023-03-04T13:56:47.089Z,61.4
2023-03-04T13:57:50.372Z,61.5
2023-03-04T13:58:53.498Z,61.4
2023-03-04T13:59:57.657Z,60.5
2023-03-04T14:01:00.710Z,60.3
2023-03-04T14:02:04.133Z,59.8
2023-03-04T14:03:07.621Z,59.2
2023-03-04T14:04:10.314Z,59.3
2023-03-04T14:05:13.532Z,59.4
2023-03-04T14:06:17.150Z,62.8
2023-03-04T14:07:20.992Z,62.6
2023-03-04T14:08:23.612Z,60
2023-03-04T14:09:26.590Z,58.2
2023-03-04T14:10:29.489Z,57.8
2023-03-04T14:11:32.625Z,58.3
2023-03-04T14:12:36.653Z,58.5